Time;durP1;ratioP1;P1;durP2;ratioP2;P2;SDS_P1;SDS_P2;PMS_P1;PMS_P2;Temp;Humidity;BMP_temperature;BMP_pressure;BME280_temperature;BME280_humidity;BME280_pressure;Samples;Min_cycle;Max_cycle;Signal;HPM_P1;HPM_P2
2023/05/26 00:00:20;;;;;;;31.23;5.65;;;;;;;;;;4993489;28;96579;-87
2023/05/26 00:02:47;;;;;;;32.00;5.45;;;;;;;;;;4995645;28;92288;-87
2023/05/26 00:05:16;;;;;;;40.10;7.00;;;;;;;;;;4994568;28;92167;-87
2023/05/26 00:07:43;;;;;;;33.15;5.68;;;;;;;;;;4998265;28;92412;-87
2023/05/26 00:10:10;;;;;;;25.63;5.72;;;;;;;;;;4996139;28;93731;-87
2023/05/26 00:12:37;;;;;;;27.25;6.05;;;;;;;;;;4992482;28;94895;-87
2023/05/26 00:15:10;;;;;;;37.45;5.53;;;;;;;;;;5007004;28;97224;-87
2023/05/26 00:17:37;;;;;;;30.15;5.32;;;;;;;;;;4988466;28;94423;-87
2023/05/26 00:20:04;;;;;;;36.47;6.53;;;;;;;;;;5007903;28;93001;-87
2023/05/26 00:22:32;;;;;;;29.95;5.88;;;;;;;;;;4993845;28;93875;-87
2023/05/26 00:24:58;;;;;;;29.33;5.78;;;;;;;;;;4987074;28;95285;-87
2023/05/26 00:27:25;;;;;;;31.58;6.18;;;;;;;;;;4993590;28;92471;-86
2023/05/26 00:29:51;;;;;;;27.45;6.25;;;;;;;;;;5000001;28;94380;-87
2023/05/26 00:32:18;;;;;;;40.70;5.53;;;;;;;;;;5004498;28;92488;-87
2023/05/26 00:34:45;;;;;;;38.28;6.85;;;;;;;;;;4992069;28;96799;-87
2023/05/26 00:37:12;;;;;;;28.52;4.70;;;;;;;;;;4990592;28;94809;-87
2023/05/26 00:39:38;;;;;;;29.92;6.28;;;;;;;;;;5007797;28;92966;-87
2023/05/26 00:42:05;;;;;;;40.25;6.88;;;;;;;;;;4995739;28;94305;-87
2023/05/26 00:44:32;;;;;;;37.40;5.63;;;;;;;;;;4977295;28;94963;-87
2023/05/26 00:46:58;;;;;;;29.25;5.35;;;;;;;;;;4994937;28;95705;-87
2023/05/26 00:49:25;;;;;;;33.25;6.38;;;;;;;;;;4994204;28;93200;-87
2023/05/26 00:51:52;;;;;;;32.80;6.05;;;;;;;;;;4995289;28;92527;-88
2023/05/26 00:54:21;;;;;;;31.13;4.82;;;;;;;;;;4998091;28;94561;-88
2023/05/26 00:56:48;;;;;;;37.40;6.07;;;;;;;;;;5004173;28;96179;-87
2023/05/26 00:59:14;;;;;;;28.27;5.55;;;;;;;;;;4997466;28;95840;-87
2023/05/26 01:01:41;;;;;;;27.70;5.75;;;;;;;;;;4992799;28;94922;-87
2023/05/26 01:04:09;;;;;;;39.05;5.63;;;;;;;;;;4981754;28;94556;-87
2023/05/26 01:06:35;;;;;;;29.15;4.95;;;;;;;;;;4996122;28;92538;-87
2023/05/26 01:09:03;;;;;;;27.73;5.18;;;;;;;;;;5007922;28;92764;-87
2023/05/26 01:11:33;;;;;;;26.45;5.57;;;;;;;;;;4984918;28;96268;-87
2023/05/26 01:13:59;;;;;;;37.10;5.63;;;;;;;;;;4981509;28;95352;-87
2023/05/26 01:16:29;;;;;;;42.35;6.95;;;;;;;;;;5006841;28;93444;-86
2023/05/26 01:18:58;;;;;;;;;;;;;;;;;;4994675;28;94836;-87
2023/05/26 01:21:29;;;;;;;35.70;5.90;;;;;;;;;;5013978;28;92472;-87
2023/05/26 01:24:04;;;;;;;32.10;6.00;;;;;;;;;;5004911;28;94616;-87
2023/05/26 01:26:38;;;;;;;26.80;5.00;;;;;;;;;;5006074;28;94766;-87
2023/05/26 01:29:08;;;;;;;40.95;5.70;;;;;;;;;;5011325;28;94228;-88
2023/05/26 01:31:35;;;;;;;38.17;6.88;;;;;;;;;;5013889;28;92085;-88
2023/05/26 01:34:05;;;;;;;37.25;5.65;;;;;;;;;;5005016;28;93980;-88
2023/05/26 01:36:32;;;;;;;33.22;5.97;;;;;;;;;;5008610;28;92640;-86
2023/05/26 01:38:59;;;;;;;37.22;5.75;;;;;;;;;;4995782;28;92961;-88
2023/05/26 01:41:26;;;;;;;41.28;5.85;;;;;;;;;;4994801;28;93961;-88
2023/05/26 01:43:59;;;;;;;42.17;7.32;;;;;;;;;;4998752;28;92346;-87
2023/05/26 01:46:29;;;;;;;33.42;6.15;;;;;;;;;;4981890;28;95375;-88
2023/05/26 01:48:58;;;;;;;38.08;6.00;;;;;;;;;;4997042;28;92578;-88
2023/05/26 01:51:26;;;;;;;29.00;6.38;;;;;;;;;;4985603;28;98128;-88
2023/05/26 01:53:55;;;;;;;30.77;5.53;;;;;;;;;;4960964;28;95820;-87
2023/05/26 01:56:21;;;;;;;24.25;5.72;;;;;;;;;;4994785;28;95531;-88
2023/05/26 01:58:50;;;;;;;32.47;5.97;;;;;;;;;;4987829;28;94827;-88
2023/05/26 02:01:16;;;;;;;30.90;6.00;;;;;;;;;;4980224;28;95092;-88
2023/05/26 02:03:43;;;;;;;32.97;6.50;;;;;;;;;;4981060;28;94962;-87
2023/05/26 02:06:10;;;;;;;23.05;6.53;;;;;;;;;;4993608;28;94065;-87
2023/05/26 02:08:37;;;;;;;27.55;5.45;;;;;;;;;;4977463;28;95481;-88
2023/05/26 02:11:04;;;;;;;32.17;5.13;;;;;;;;;;4992584;28;96160;-87
2023/05/26 02:13:31;;;;;;;44.17;5.88;;;;;;;;;;4989304;28;92428;-88
2023/05/26 02:15:58;;;;;;;36.80;6.13;;;;;;;;;;4971433;28;94642;-87
2023/05/26 02:18:25;;;;;;;39.33;6.65;;;;;;;;;;4992605;28;92620;-87
2023/05/26 02:20:52;;;;;;;33.28;5.70;;;;;;;;;;4992496;28;95851;-88
2023/05/26 02:23:19;;;;;;;30.55;4.80;;;;;;;;;;4998519;28;94913;-88
2023/05/26 02:25:46;;;;;;;39.28;6.07;;;;;;;;;;4992550;28;93902;-88
2023/05/26 02:28:12;;;;;;;37.65;6.75;;;;;;;;;;4994520;28;92473;-87
2023/05/26 02:30:39;;;;;;;36.83;4.93;;;;;;;;;;4992750;28;96025;-88
2023/05/26 02:33:08;;;;;;;33.28;6.35;;;;;;;;;;4993625;28;92898;-87
2023/05/26 02:35:35;;;;;;;39.72;6.57;;;;;;;;;;4997961;28;92355;-87
2023/05/26 02:38:02;;;;;;;30.90;4.97;;;;;;;;;;4993396;28;95938;-88
2023/05/26 02:40:34;;;;;;;38.75;6.35;;;;;;;;;;4961329;28;95353;-88
2023/05/26 02:43:01;;;;;;;25.23;5.63;;;;;;;;;;4996996;28;95156;-88
2023/05/26 02:45:27;;;;;;;34.17;6.38;;;;;;;;;;4993876;28;94611;-88
2023/05/26 02:47:54;;;;;;;36.53;5.85;;;;;;;;;;4976728;28;95788;-87
2023/05/26 02:50:22;;;;;;;37.28;6.03;;;;;;;;;;4990114;28;92461;-87
2023/05/26 02:52:48;;;;;;;31.33;5.97;;;;;;;;;;4993278;28;94585;-87
2023/05/26 02:55:15;;;;;;;29.85;5.75;;;;;;;;;;4998002;28;92201;-88
2023/05/26 02:57:42;;;;;;;28.63;5.53;;;;;;;;;;4988698;28;92144;-87
2023/05/26 03:00:12;;;;;;;33.03;5.78;;;;;;;;;;4995386;28;92452;-87
2023/05/26 03:02:39;;;;;;;33.03;6.47;;;;;;;;;;4987904;28;94757;-87
2023/05/26 03:05:06;;;;;;;35.75;5.55;;;;;;;;;;4995240;28;95011;-87
2023/05/26 03:07:33;;;;;;;34.75;6.15;;;;;;;;;;4974315;28;96797;-88
2023/05/26 03:10:01;;;;;;;31.92;6.55;;;;;;;;;;4995495;28;94488;-88
2023/05/26 03:12:28;;;;;;;35.53;6.90;;;;;;;;;;4977040;28;93858;-88
2023/05/26 03:14:55;;;;;;;26.83;5.45;;;;;;;;;;4978405;28;94827;-87
2023/05/26 03:17:22;;;;;;;29.65;6.43;;;;;;;;;;4971784;28;94515;-87
2023/05/26 03:19:49;;;;;;;33.08;6.28;;;;;;;;;;4994582;28;94165;-87
2023/05/26 03:22:15;;;;;;;36.70;5.57;;;;;;;;;;4995010;28;94453;-87
2023/05/26 03:25:04;;;;;;;21.45;4.45;;;;;;;;;;4979747;28;94611;-88
2023/05/26 03:27:41;;;;;;;25.00;5.72;;;;;;;;;;4980263;28;92173;-88
2023/05/26 03:30:08;;;;;;;34.20;6.05;;;;;;;;;;4996583;28;95603;-88
2023/05/26 03:32:39;;;;;;;26.38;4.80;;;;;;;;;;4988412;28;94683;-88
2023/05/26 03:35:06;;;;;;;37.35;5.88;;;;;;;;;;4977126;28;94515;-88
2023/05/26 03:37:33;;;;;;;36.72;5.63;;;;;;;;;;4993040;28;93522;-88
2023/05/26 03:40:00;;;;;;;22.40;5.32;;;;;;;;;;4992667;28;95445;-88
2023/05/26 03:42:29;;;;;;;31.25;5.50;;;;;;;;;;4997671;28;94944;-88
2023/05/26 03:44:56;;;;;;;28.45;6.13;;;;;;;;;;4992772;28;96102;-88
2023/05/26 03:47:23;;;;;;;43.95;6.78;;;;;;;;;;4989476;28;95471;-88
2023/05/26 03:49:50;;;;;;;40.95;5.72;;;;;;;;;;4998117;28;94704;-88
2023/05/26 03:52:16;;;;;;;27.77;5.93;;;;;;;;;;4980661;28;94197;-87
2023/05/26 03:54:43;;;;;;;29.52;6.07;;;;;;;;;;4993146;28;94548;-88
2023/05/26 03:57:09;;;;;;;38.97;7.40;;;;;;;;;;5005261;28;94919;-88
2023/05/26 03:59:37;;;;;;;48.50;7.13;;;;;;;;;;4982061;28;94106;-87
2023/05/26 04:02:04;;;;;;;31.88;6.00;;;;;;;;;;4998384;28;95341;-88
2023/05/26 04:04:31;;;;;;;46.30;6.20;;;;;;;;;;4978203;28;92431;-87
2023/05/26 04:06:58;;;;;;;30.98;5.53;;;;;;;;;;4990149;28;95041;-87
2023/05/26 04:09:24;;;;;;;32.38;5.80;;;;;;;;;;4994885;28;93016;-87
2023/05/26 04:11:51;;;;;;;36.67;5.93;;;;;;;;;;4991624;28;94797;-87
2023/05/26 04:14:18;;;;;;;30.25;5.35;;;;;;;;;;4990066;28;92766;-87
2023/05/26 04:16:46;;;;;;;36.22;6.18;;;;;;;;;;4991696;28;92760;-88
2023/05/26 04:19:14;;;;;;;33.97;7.65;;;;;;;;;;4990252;28;95309;-87
2023/05/26 04:21:41;;;;;;;36.50;5.95;;;;;;;;;;4992013;28;97404;-87
2023/05/26 04:24:08;;;;;;;39.97;6.18;;;;;;;;;;5006352;28;94866;-88
2023/05/26 04:26:34;;;;;;;36.85;6.20;;;;;;;;;;4991638;28;94457;-87
2023/05/26 04:29:20;;;;;;;41.45;5.32;;;;;;;;;;5006386;28;92404;-87
2023/05/26 04:32:08;;;;;;;29.02;5.80;;;;;;;;;;5016314;28;94053;-87
2023/05/26 04:34:53;;;;;;;30.92;6.15;;;;;;;;;;5016624;28;91983;-88
2023/05/26 04:37:23;;;;;;;34.90;7.03;;;;;;;;;;5018915;28;91261;-87
2023/05/26 04:39:50;;;;;;;33.10;5.82;;;;;;;;;;5003725;28;95066;-87
2023/05/26 04:42:18;;;;;;;39.75;5.57;;;;;;;;;;5018753;28;95207;-87
2023/05/26 04:44:45;;;;;;;38.78;8.38;;;;;;;;;;4993985;28;96877;-87
2023/05/26 04:47:13;;;;;;;49.33;7.55;;;;;;;;;;5009279;28;94912;-87
2023/05/26 04:49:40;;;;;;;36.25;5.82;;;;;;;;;;4990860;28;94831;-87
2023/05/26 04:52:08;;;;;;;33.10;5.68;;;;;;;;;;4991427;28;93377;-88
2023/05/26 04:54:40;;;;;;;27.95;5.88;;;;;;;;;;4994195;28;95544;-88
2023/05/26 04:57:07;;;;;;;;;;;;;;;;;;4975196;28;93196;-87
2023/05/26 04:59:46;;;;;;;26.40;6.13;;;;;;;;;;4977150;28;95668;-88
2023/05/26 05:02:15;;;;;;;28.95;5.50;;;;;;;;;;4979249;28;95532;-88
2023/05/26 05:05:01;;;;;;;31.40;5.88;;;;;;;;;;4983252;28;97361;-88
2023/05/26 05:07:27;;;;;;;37.33;6.13;;;;;;;;;;4990197;28;94399;-88
2023/05/26 05:09:54;;;;;;;30.92;5.60;;;;;;;;;;4998850;28;94891;-87
2023/05/26 05:12:23;;;;;;;28.77;6.70;;;;;;;;;;4995750;28;93970;-87
2023/05/26 05:14:50;;;;;;;29.42;6.00;;;;;;;;;;4973652;28;94408;-87
2023/05/26 05:17:17;;;;;;;34.30;6.45;;;;;;;;;;4993550;28;94369;-87
2023/05/26 05:19:43;;;;;;;30.77;4.85;;;;;;;;;;4990319;28;94450;-88
2023/05/26 05:22:12;;;;;;;38.63;6.55;;;;;;;;;;4994378;28;94218;-87
2023/05/26 05:24:40;;;;;;;36.00;6.55;;;;;;;;;;4994111;28;94527;-88
2023/05/26 05:27:06;;;;;;;29.17;5.70;;;;;;;;;;4992887;28;94837;-87
2023/05/26 05:29:33;;;;;;;39.03;7.15;;;;;;;;;;4993894;28;92216;-87
2023/05/26 05:32:01;;;;;;;24.05;6.00;;;;;;;;;;4995019;28;93214;-88
2023/05/26 05:34:38;;;;;;;29.77;6.30;;;;;;;;;;4984804;28;94811;-88
2023/05/26 05:37:04;;;;;;;29.80;6.05;;;;;;;;;;4998479;28;96719;-87
2023/05/26 05:39:31;;;;;;;31.75;6.40;;;;;;;;;;4995853;28;95532;-87
2023/05/26 05:41:58;;;;;;;35.78;6.38;;;;;;;;;;4997859;28;94259;-87
2023/05/26 05:44:24;;;;;;;52.28;5.95;;;;;;;;;;4998024;28;92390;-87
2023/05/26 05:46:51;;;;;;;29.58;5.15;;;;;;;;;;4993237;28;92527;-88
2023/05/26 05:49:19;;;;;;;26.70;6.78;;;;;;;;;;4991403;28;92576;-87
2023/05/26 05:51:48;;;;;;;33.63;6.22;;;;;;;;;;4993576;28;93852;-86
2023/05/26 05:54:15;;;;;;;39.00;6.85;;;;;;;;;;4988506;28;92558;-86
2023/05/26 05:56:43;;;;;;;37.55;6.68;;;;;;;;;;4991307;28;94715;-87
2023/05/26 05:59:12;;;;;;;33.08;6.45;;;;;;;;;;4990100;28;95304;-86
2023/05/26 06:01:39;;;;;;;26.02;5.30;;;;;;;;;;4982895;28;96573;-87
2023/05/26 06:04:06;;;;;;;38.08;5.22;;;;;;;;;;4991560;28;94033;-87
2023/05/26 06:06:35;;;;;;;44.85;6.97;;;;;;;;;;5004378;28;92427;-87
2023/05/26 06:09:07;;;;;;;33.00;5.53;;;;;;;;;;4999980;28;93399;-88
2023/05/26 06:11:34;;;;;;;28.30;6.28;;;;;;;;;;4998761;28;93068;-88
2023/05/26 06:14:01;;;;;;;28.80;5.35;;;;;;;;;;4993850;28;94017;-87
2023/05/26 06:16:28;;;;;;;40.95;7.40;;;;;;;;;;4982533;28;94672;-87
2023/05/26 06:18:54;;;;;;;35.40;5.30;;;;;;;;;;4994110;28;92629;-88
2023/05/26 06:21:24;;;;;;;33.85;6.97;;;;;;;;;;4990753;28;95240;-87
2023/05/26 06:23:55;;;;;;;23.77;5.25;;;;;;;;;;4995404;28;96990;-87
2023/05/26 06:26:22;;;;;;;29.63;5.50;;;;;;;;;;4987412;28;94629;-87
2023/05/26 06:28:49;;;;;;;39.47;6.25;;;;;;;;;;4995495;28;92273;-88
2023/05/26 06:31:16;;;;;;;43.00;6.65;;;;;;;;;;4992583;28;94887;-87
2023/05/26 06:33:52;;;;;;;30.65;5.60;;;;;;;;;;4976723;28;94613;-87
2023/05/26 06:36:20;;;;;;;43.58;5.85;;;;;;;;;;4994118;28;92347;-89
2023/05/26 06:38:47;;;;;;;42.53;5.78;;;;;;;;;;4981252;28;94550;-87
2023/05/26 06:41:13;;;;;;;29.00;7.13;;;;;;;;;;4993150;28;95386;-88
2023/05/26 06:43:41;;;;;;;34.67;5.85;;;;;;;;;;4979054;28;94644;-88
2023/05/26 06:46:08;;;;;;;30.70;7.30;;;;;;;;;;4998838;28;92792;-88
2023/05/26 06:48:38;;;;;;;27.85;7.05;;;;;;;;;;4995108;28;95710;-88
2023/05/26 06:51:12;;;;;;;37.70;6.82;;;;;;;;;;4978614;28;94240;-87
2023/05/26 06:53:40;;;;;;;31.23;5.85;;;;;;;;;;4993576;28;94344;-88
2023/05/26 06:56:06;;;;;;;37.10;5.18;;;;;;;;;;5001294;28;93750;-85
2023/05/26 06:58:35;;;;;;;37.05;6.15;;;;;;;;;;4972533;28;94970;-85
2023/05/26 07:01:02;;;;;;;35.85;5.88;;;;;;;;;;5007617;28;95834;-85
2023/05/26 07:03:32;;;;;;;34.33;5.00;;;;;;;;;;4993949;28;94088;-85
2023/05/26 07:06:00;;;;;;;38.22;6.47;;;;;;;;;;4997910;28;94191;-85
2023/05/26 07:08:29;;;;;;;27.42;4.82;;;;;;;;;;4994646;28;92991;-85
2023/05/26 07:11:13;;;;;;;32.63;6.00;;;;;;;;;;4999444;28;94923;-85
2023/05/26 07:13:41;;;;;;;34.95;6.15;;;;;;;;;;5007560;28;94896;-85
2023/05/26 07:16:07;;;;;;;36.35;6.28;;;;;;;;;;4999895;28;94005;-85
2023/05/26 07:18:34;;;;;;;34.83;6.00;;;;;;;;;;5005222;28;95162;-86
2023/05/26 07:21:02;;;;;;;27.67;6.63;;;;;;;;;;4999382;28;92358;-85
2023/05/26 07:23:28;;;;;;;35.42;6.05;;;;;;;;;;5009939;28;94478;-86
2023/05/26 07:25:56;;;;;;;34.15;6.80;;;;;;;;;;5004455;28;92434;-86
2023/05/26 07:28:25;;;;;;;35.67;5.00;;;;;;;;;;5007113;28;95490;-86
2023/05/26 07:30:52;;;;;;;34.00;6.90;;;;;;;;;;4995656;28;93381;-86
2023/05/26 07:33:27;;;;;;;31.13;5.38;;;;;;;;;;4991732;28;94790;-86
2023/05/26 07:35:54;;;;;;;30.58;5.28;;;;;;;;;;4999840;28;92711;-86
2023/05/26 07:38:21;;;;;;;30.05;5.93;;;;;;;;;;4976770;28;96470;-85
2023/05/26 07:40:47;;;;;;;28.38;5.20;;;;;;;;;;4988681;28;92476;-85
2023/05/26 07:43:14;;;;;;;37.88;6.50;;;;;;;;;;4995762;28;94981;-84
2023/05/26 07:45:41;;;;;;;21.40;5.72;;;;;;;;;;5002342;28;92443;-84
2023/05/26 07:48:07;;;;;;;30.40;5.50;;;;;;;;;;5003966;28;92607;-85
2023/05/26 07:50:34;;;;;;;30.17;5.00;;;;;;;;;;5014979;28;93105;-84
2023/05/26 07:53:00;;;;;;;29.13;5.95;;;;;;;;;;5001646;28;92363;-84
2023/05/26 07:55:27;;;;;;;25.02;5.80;;;;;;;;;;5003427;28;92289;-85
2023/05/26 07:57:53;;;;;;;29.40;5.88;;;;;;;;;;4999947;28;95037;-83
2023/05/26 08:00:20;;;;;;;18.63;4.75;;;;;;;;;;5016374;28;92625;-83
2023/05/26 08:02:47;;;;;;;19.05;4.75;;;;;;;;;;5003747;28;94984;-84
2023/05/26 08:05:14;;;;;;;31.73;5.38;;;;;;;;;;4986435;28;94224;-83
2023/05/26 08:07:41;;;;;;;24.90;5.32;;;;;;;;;;5004741;28;92933;-82
2023/05/26 08:10:07;;;;;;;29.63;5.75;;;;;;;;;;5016038;28;92355;-82
2023/05/26 08:12:34;;;;;;;26.63;4.63;;;;;;;;;;4992473;28;93279;-83
2023/05/26 08:15:11;;;;;;;25.08;5.00;;;;;;;;;;4978532;28;95084;-83
2023/05/26 08:17:37;;;;;;;37.70;4.97;;;;;;;;;;4991334;28;94882;-84
2023/05/26 08:20:04;;;;;;;28.67;5.68;;;;;;;;;;5013816;28;95641;-83
2023/05/26 08:22:31;;;;;;;27.17;5.78;;;;;;;;;;5003479;28;93075;-83
2023/05/26 08:24:58;;;;;;;34.80;7.88;;;;;;;;;;4979503;28;95083;-83
2023/05/26 08:27:24;;;;;;;24.65;4.88;;;;;;;;;;4999321;28;94700;-82
2023/05/26 08:29:51;;;;;;;30.52;5.88;;;;;;;;;;5008257;28;94036;-82
2023/05/26 08:32:17;;;;;;;34.83;5.20;;;;;;;;;;5000233;28;92399;-83
2023/05/26 08:34:44;;;;;;;36.15;5.07;;;;;;;;;;4991847;28;95678;-83
2023/05/26 08:37:13;;;;;;;44.00;5.88;;;;;;;;;;4995994;28;92094;-83
2023/05/26 08:39:40;;;;;;;40.10;5.70;;;;;;;;;;4995638;28;92361;-82
2023/05/26 08:42:07;;;;;;;26.13;5.25;;;;;;;;;;4991249;28;92934;-83
2023/05/26 08:44:33;;;;;;;31.65;4.55;;;;;;;;;;5002347;28;92249;-83
2023/05/26 08:47:02;;;;;;;37.15;4.90;;;;;;;;;;4988499;28;92378;-83
2023/05/26 08:49:36;;;;;;;25.08;4.95;;;;;;;;;;5004677;28;92838;-83
2023/05/26 08:52:04;;;;;;;;;;;;;;;;;;4997650;28;97060;-83
2023/05/26 08:54:31;;;;;;;47.53;6.30;;;;;;;;;;4995058;28;120856;-82
2023/05/26 08:56:58;;;;;;;35.17;6.10;;;;;;;;;;4995713;28;94069;-83
2023/05/26 08:59:25;;;;;;;19.90;5.10;;;;;;;;;;4991230;28;94164;-83
2023/05/26 09:01:51;;;;;;;28.67;5.28;;;;;;;;;;4997522;28;92756;-83
2023/05/26 09:04:18;;;;;;;30.35;5.82;;;;;;;;;;4994120;28;93074;-83
2023/05/26 09:06:45;;;;;;;28.70;5.55;;;;;;;;;;4991507;28;92675;-83
2023/05/26 09:09:29;;;;;;;31.88;4.75;;;;;;;;;;4991236;28;92086;-84
2023/05/26 09:11:56;;;;;;;22.73;5.18;;;;;;;;;;4990988;28;95377;-84
2023/05/26 09:14:23;;;;;;;26.75;4.85;;;;;;;;;;4995765;28;94767;-84
2023/05/26 09:16:52;;;;;;;29.17;5.90;;;;;;;;;;4985111;28;94917;-84
2023/05/26 09:19:19;;;;;;;33.83;5.38;;;;;;;;;;4994628;28;94169;-84
2023/05/26 09:21:46;;;;;;;33.55;6.70;;;;;;;;;;5005369;28;92380;-84
2023/05/26 09:24:20;;;;;;;17.33;4.93;;;;;;;;;;5009143;28;92778;-82
2023/05/26 09:26:48;;;;;;;20.02;5.25;;;;;;;;;;5018920;28;93512;-82
2023/05/26 09:29:15;;;;;;;22.85;5.32;;;;;;;;;;5002547;28;93346;-84
2023/05/26 09:31:43;;;;;;;25.90;4.97;;;;;;;;;;4997354;28;95197;-83
2023/05/26 09:34:10;;;;;;;30.52;5.97;;;;;;;;;;5012387;28;92983;-83
2023/05/26 09:36:38;;;;;;;27.40;5.95;;;;;;;;;;4997666;28;92605;-82
2023/05/26 09:39:05;;;;;;;24.63;4.93;;;;;;;;;;5006742;28;92336;-84
2023/05/26 09:41:42;;;;;;;30.67;5.97;;;;;;;;;;5005831;28;94779;-84
2023/05/26 09:44:10;;;;;;;25.23;5.15;;;;;;;;;;5019484;28;92333;-85
2023/05/26 09:46:37;;;;;;;25.75;5.50;;;;;;;;;;5009920;28;92435;-84
2023/05/26 09:49:07;;;;;;;26.25;5.32;;;;;;;;;;5011068;28;92371;-84
2023/05/26 09:51:34;;;;;;;16.52;4.40;;;;;;;;;;4990233;28;92317;-85
2023/05/26 09:54:04;;;;;;;34.88;5.13;;;;;;;;;;5006676;28;94382;-85
2023/05/26 09:56:34;;;;;;;17.80;5.15;;;;;;;;;;4997334;28;92113;-85
2023/05/26 09:59:05;;;;;;;24.67;4.93;;;;;;;;;;5000671;28;92838;-85
2023/05/26 10:01:34;;;;;;;20.65;5.78;;;;;;;;;;4995236;28;92546;-85
2023/05/26 10:04:03;;;;;;;24.15;5.18;;;;;;;;;;4996872;28;95661;-85
2023/05/26 10:06:31;;;;;;;28.23;5.68;;;;;;;;;;4980328;28;94851;-85
2023/05/26 10:08:59;;;;;;;21.20;5.72;;;;;;;;;;4993032;28;96975;-86
2023/05/26 10:11:27;;;;;;;35.42;6.35;;;;;;;;;;4996480;28;94752;-85
2023/05/26 10:13:54;;;;;;;26.13;5.22;;;;;;;;;;4995856;28;93041;-86
2023/05/26 10:16:22;;;;;;;18.13;5.18;;;;;;;;;;4997778;28;92951;-85
2023/05/26 10:18:49;;;;;;;26.65;5.18;;;;;;;;;;4985371;28;92258;-86
2023/05/26 10:21:17;;;;;;;20.45;5.32;;;;;;;;;;4995978;28;94675;-86
2023/05/26 10:23:46;;;;;;;33.88;7.85;;;;;;;;;;4994434;28;94340;-86
2023/05/26 10:26:23;;;;;;;29.65;6.10;;;;;;;;;;4996792;28;92507;-85
2023/05/26 10:28:52;;;;;;;24.42;5.63;;;;;;;;;;5008568;28;92398;-85
2023/05/26 10:31:32;;;;;;;28.85;6.10;;;;;;;;;;4993201;28;95734;-85
2023/05/26 10:33:59;;;;;;;26.38;5.10;;;;;;;;;;4996146;28;92687;-85
2023/05/26 10:36:25;;;;;;;24.80;5.20;;;;;;;;;;4995412;28;94605;-86
2023/05/26 10:38:52;;;;;;;25.25;6.68;;;;;;;;;;4996619;28;94678;-85
2023/05/26 10:41:39;;;;;;;23.35;5.25;;;;;;;;;;4993156;28;95504;-85
2023/05/26 10:44:25;;;;;;;31.05;5.65;;;;;;;;;;4995002;28;92890;-86
2023/05/26 10:47:02;;;;;;;21.15;5.32;;;;;;;;;;4993822;28;92858;-85
2023/05/26 10:49:33;;;;;;;25.38;4.85;;;;;;;;;;4993087;28;92092;-85
2023/05/26 10:52:06;;;;;;;23.03;4.87;;;;;;;;;;4998474;28;92642;-85
2023/05/26 10:54:32;;;;;;;35.65;6.85;;;;;;;;;;5024363;28;92579;-85
2023/05/26 10:56:59;;;;;;;25.10;4.45;;;;;;;;;;5003185;28;94860;-85
2023/05/26 10:59:31;;;;;;;19.05;4.68;;;;;;;;;;5000662;28;95018;-85
2023/05/26 11:01:57;;;;;;;;;;;;;;;;;;4994888;28;93394;-86
2023/05/26 11:04:39;;;;;;;21.98;5.38;;;;;;;;;;5002113;28;92377;-84
2023/05/26 11:07:13;;;;;;;20.48;5.35;;;;;;;;;;5004786;28;92093;-84
2023/05/26 11:09:53;;;;;;;19.63;4.90;;;;;;;;;;5005143;28;92429;-85
2023/05/26 11:12:21;;;;;;;35.10;6.33;;;;;;;;;;4997069;28;92488;-84
2023/05/26 11:14:48;;;;;;;34.38;5.55;;;;;;;;;;4999321;28;92201;-84
2023/05/26 11:17:16;;;;;;;29.92;5.68;;;;;;;;;;4997808;28;93491;-84
2023/05/26 11:19:52;;;;;;;24.58;5.78;;;;;;;;;;4992341;28;94742;-84
2023/05/26 11:22:21;;;;;;;25.40;6.25;;;;;;;;;;4993230;28;94839;-84
2023/05/26 11:24:52;;;;;;;30.15;6.63;;;;;;;;;;4988356;28;94165;-84
2023/05/26 11:27:23;;;;;;;28.70;5.60;;;;;;;;;;4997428;28;93838;-83
2023/05/26 11:29:57;;;;;;;21.23;4.37;;;;;;;;;;5008452;28;94965;-82
2023/05/26 11:32:24;;;;;;;22.75;4.72;;;;;;;;;;4999709;28;93475;-85
2023/05/26 11:34:50;;;;;;;19.00;4.80;;;;;;;;;;4998018;28;92319;-82
2023/05/26 11:37:17;;;;;;;19.17;4.50;;;;;;;;;;5001684;28;92350;-84
2023/05/26 11:39:44;;;;;;;17.52;5.32;;;;;;;;;;5014671;28;92008;-84
2023/05/26 11:42:11;;;;;;;21.60;4.90;;;;;;;;;;4995558;28;92484;-84
2023/05/26 11:44:38;;;;;;;20.42;4.10;;;;;;;;;;4996019;28;94547;-84
2023/05/26 11:47:05;;;;;;;29.38;5.00;;;;;;;;;;4997302;28;94774;-84
2023/05/26 11:49:32;;;;;;;19.70;4.35;;;;;;;;;;4995454;28;92397;-84
2023/05/26 11:51:59;;;;;;;17.05;5.68;;;;;;;;;;4999903;28;94218;-83
2023/05/26 11:54:25;;;;;;;20.40;4.50;;;;;;;;;;5002497;28;92553;-83
2023/05/26 11:56:52;;;;;;;19.27;4.32;;;;;;;;;;4995340;28;93951;-84
2023/05/26 11:59:19;;;;;;;24.00;4.53;;;;;;;;;;5003550;28;94195;-84
2023/05/26 12:01:46;;;;;;;20.92;4.97;;;;;;;;;;5001924;28;92084;-83
2023/05/26 12:04:13;;;;;;;23.27;5.13;;;;;;;;;;5014528;28;93608;-85
2023/05/26 12:06:41;;;;;;;33.35;5.65;;;;;;;;;;4993327;28;92380;-84
2023/05/26 12:09:19;;;;;;;24.55;5.00;;;;;;;;;;4998971;28;94592;-83
2023/05/26 12:11:46;;;;;;;26.05;5.80;;;;;;;;;;5000754;28;94816;-84
2023/05/26 12:14:14;;;;;;;20.85;4.70;;;;;;;;;;5009035;28;95099;-84
2023/05/26 12:16:40;;;;;;;26.23;5.00;;;;;;;;;;5005536;28;92414;-85
2023/05/26 12:19:11;;;;;;;18.27;4.25;;;;;;;;;;4998428;28;92549;-85
2023/05/26 12:21:42;;;;;;;20.20;4.00;;;;;;;;;;4997483;28;95311;-85
2023/05/26 12:24:09;;;;;;;24.37;4.67;;;;;;;;;;5007244;28;93282;-84
2023/05/26 12:26:36;;;;;;;22.55;5.00;;;;;;;;;;4991492;28;92412;-85
2023/05/26 12:29:17;;;;;;;23.70;4.07;;;;;;;;;;4992816;28;92335;-83
2023/05/26 12:31:44;;;;;;;10.02;3.47;;;;;;;;;;5005700;28;93719;-83
2023/05/26 12:34:12;;;;;;;20.48;4.43;;;;;;;;;;5001602;28;93283;-83
2023/05/26 12:36:39;;;;;;;14.40;2.95;;;;;;;;;;5011388;28;94511;-83
2023/05/26 12:39:08;;;;;;;16.17;3.17;;;;;;;;;;4999333;28;93051;-83
2023/05/26 12:41:36;;;;;;;17.08;4.88;;;;;;;;;;4991808;28;94053;-84
2023/05/26 12:44:03;;;;;;;8.98;2.90;;;;;;;;;;5004170;28;92912;-83
2023/05/26 12:46:32;;;;;;;17.80;3.00;;;;;;;;;;5002820;28;92102;-83
2023/05/26 12:48:58;;;;;;;23.42;4.18;;;;;;;;;;4988871;28;92662;-84
2023/05/26 12:51:25;;;;;;;10.98;3.17;;;;;;;;;;4985508;28;92509;-82
2023/05/26 12:53:52;;;;;;;19.13;3.83;;;;;;;;;;4996511;28;92076;-84
2023/05/26 12:56:19;;;;;;;16.00;3.42;;;;;;;;;;4991549;28;95086;-85
2023/05/26 12:58:46;;;;;;;17.63;3.90;;;;;;;;;;5050897;22;93296;-84
2023/05/26 13:01:13;;;;;;;15.73;3.97;;;;;;;;;;4953389;28;94711;-83
2023/05/26 13:03:40;;;;;;;16.67;3.53;;;;;;;;;;4962890;28;95802;-83
2023/05/26 13:06:08;;;;;;;14.60;4.40;;;;;;;;;;4956414;28;94098;-84
2023/05/26 13:08:35;;;;;;;16.67;4.00;;;;;;;;;;4962082;28;92561;-83
2023/05/26 13:11:02;;;;;;;11.23;3.03;;;;;;;;;;4953119;28;92391;-83
2023/05/26 13:13:31;;;;;;;16.50;3.70;;;;;;;;;;4960786;28;94776;-84
2023/05/26 13:16:00;;;;;;;12.90;3.72;;;;;;;;;;4959035;28;92509;-83
2023/05/26 13:18:38;;;;;;;20.85;4.30;;;;;;;;;;4960599;28;94507;-84
2023/05/26 13:21:05;;;;;;;14.65;3.78;;;;;;;;;;4957014;28;96384;-83
2023/05/26 13:23:36;;;;;;;16.55;3.92;;;;;;;;;;4943908;28;92471;-84
2023/05/26 13:26:02;;;;;;;21.05;4.10;;;;;;;;;;4955510;28;97637;-84
2023/05/26 13:28:29;;;;;;;16.10;4.03;;;;;;;;;;4952637;28;92398;-84
2023/05/26 13:30:55;;;;;;;15.68;3.47;;;;;;;;;;4957457;28;93025;-84
2023/05/26 13:33:26;;;;;;;14.73;3.53;;;;;;;;;;4943224;28;92376;-84
2023/05/26 13:35:53;;;;;;;14.35;3.30;;;;;;;;;;4960157;28;92387;-84
2023/05/26 13:38:20;;;;;;;14.30;3.90;;;;;;;;;;4943476;28;93093;-86
2023/05/26 13:40:47;;;;;;;11.88;3.15;;;;;;;;;;4958848;28;92477;-85
2023/05/26 13:43:13;;;;;;;12.55;3.47;;;;;;;;;;4956904;28;92007;-84
2023/05/26 13:45:40;;;;;;;13.70;3.25;;;;;;;;;;4956837;28;95004;-86
2023/05/26 13:48:21;;;;;;;14.40;3.30;;;;;;;;;;4950228;28;92642;-86
2023/05/26 13:50:48;;;;;;;18.35;3.45;;;;;;;;;;4947937;28;94846;-85
2023/05/26 13:53:15;;;;;;;13.63;3.45;;;;;;;;;;4958951;28;94331;-85
2023/05/26 13:55:44;;;;;;;11.45;3.60;;;;;;;;;;4972533;28;95085;-84
2023/05/26 13:58:11;;;;;;;8.02;2.75;;;;;;;;;;4960767;28;94008;-85
2023/05/26 14:00:38;;;;;;;14.80;3.90;;;;;;;;;;4957812;28;92743;-85
2023/05/26 14:03:05;;;;;;;12.75;3.65;;;;;;;;;;4961140;28;92067;-84
2023/05/26 14:05:32;;;;;;;9.48;3.30;;;;;;;;;;4951288;28;92462;-83
2023/05/26 14:07:58;;;;;;;14.23;3.63;;;;;;;;;;4959671;28;92299;-84
2023/05/26 14:10:30;;;;;;;13.43;3.88;;;;;;;;;;4969766;28;92103;-84
2023/05/26 14:12:57;;;;;;;20.10;3.97;;;;;;;;;;4959144;28;92933;-86
2023/05/26 14:15:28;;;;;;;15.95;3.70;;;;;;;;;;4958871;28;94701;-84
2023/05/26 14:17:55;;;;;;;14.73;4.25;;;;;;;;;;4958968;28;95677;-84
2023/05/26 14:20:33;;;;;;;14.05;3.85;;;;;;;;;;4930227;28;92443;-84
2023/05/26 14:23:22;;;;;;;14.80;4.10;;;;;;;;;;4946663;28;92673;-86
2023/05/26 14:25:51;;;;;;;13.02;3.55;;;;;;;;;;4954397;28;93008;-86
2023/05/26 14:28:18;;;;;;;12.15;3.80;;;;;;;;;;4947977;28;94378;-85
2023/05/26 14:30:46;;;;;;;14.88;4.22;;;;;;;;;;4949946;28;94415;-86
2023/05/26 14:33:12;;;;;;;17.42;3.67;;;;;;;;;;4954546;28;94060;-84
2023/05/26 14:35:39;;;;;;;16.33;4.00;;;;;;;;;;4940882;28;95711;-83
2023/05/26 14:38:05;;;;;;;16.10;3.88;;;;;;;;;;4948939;28;94296;-84